SBOSBO MAA / VOMM
Speedbird OnlineSpeedbird Online MAA / VOMM

Chennai International Airport
05:17 26°C

Location Madras, India
Latitude: 12.990005493164062
Longitude: 80.16929626464844
Local Time 05:17 on 28 Feb 2024
UTC +5.5 hours (Asia/Calcutta)
Currency £1 equals INR 105.20
METAR VOMM 272330Z VRB02KT 5000 BR FEW020 SCT100 26/23 Q1012 BECMG 3000 BR
TAF TAF VOMM 272300Z 2800/2906 09002KT 5000 HZ FEW020 SCT100 BECMG 2801/2802 3000 BR BECMG 2806/2807 09010KT 5000 HZ BECMG 2807/2808 6000 BECMG 2821/2822 09002KT 5000 HZ BECMG 2901/2902 3000 BR
Weather As Of 28 Feb 2024 05:17
Description Mist
Wind 6 km/h from North (350°)
Cloud Cover 40%
Precipitation Rain: none, Snow: none
Sunrise 06:26
Sunset 18:17
NOTAM 57 active NOTAM
Rotations During the last 90 days there were
78 flights from LHR
2 flights from HYD
1 flights from MCT
1 flights from BLR
83 flights to LHR
1 flights to BLR
Lounges Travel Club Lounge - New Terminal 2, , New Integrated Terminal 2
TFS Travel Club, International Terminal
Travel Food Services Lounge, New International Terminal
Web Wikipedia
Codes IATA: MAA
ICAO: VOMM
Altitude 16 Meter / 52 Feet
Distance 8,195 KM / 5,092 Miles
from London.
Runways
RunwayLength (m)Surface
073658Asphalt
122045Partial
253658Asphalt
302045Partial
Radio
TypeDescriptionFrequency
ACCCHENNAI CNTR118.9
APPAPP127.9
ATISATIS127.45
GCASCHENNAI RADARS125.7
GNDGND121.9
TWRTWR118.1
Live ATC



Support Speedbird Online

© 2017-2024 Speedbird Online